createdAt,value
2022-09-04T00:00:00.696Z,6.37
2022-09-04T00:02:45.192Z,5.80
2022-09-04T00:05:20.155Z,6.03
2022-09-04T00:08:00.840Z,5.50
2022-09-04T00:10:34.455Z,5.47
2022-09-04T00:13:09.610Z,6.30
2022-09-04T00:15:42.103Z,7.27
2022-09-04T00:18:13.949Z,5.20
2022-09-04T00:20:47.105Z,5.23
2022-09-04T00:23:22.245Z,5.30
2022-09-04T00:25:58.486Z,6.40
2022-09-04T00:28:35.857Z,5.70
2022-09-04T00:31:13.229Z,5.63
2022-09-04T00:33:49.868Z,5.30
2022-09-04T00:36:19.378Z,6.30
2022-09-04T00:38:55.160Z,6.50
2022-09-04T00:41:31.002Z,6.13
2022-09-04T00:44:21.423Z,5.83
2022-09-04T00:47:18.606Z,6.13
2022-09-04T00:50:12.042Z,6.20
2022-09-04T00:53:02.330Z,6.27
2022-09-04T00:56:15.518Z,5.80
2022-09-04T00:58:53.811Z,6.83
2022-09-04T01:01:25.735Z,6.40
2022-09-04T01:04:24.567Z,7.10
2022-09-04T01:07:09.093Z,6.17
2022-09-04T01:10:00.839Z,6.47
2022-09-04T01:12:39.208Z,6.23
2022-09-04T01:15:15.511Z,5.70
2022-09-04T01:17:53.218Z,6.37
2022-09-04T01:20:34.671Z,6.67
2022-09-04T01:23:30.762Z,6.97
2022-09-04T01:26:14.824Z,6.17
2022-09-04T01:28:54.640Z,5.87
2022-09-04T01:31:32.979Z,6.17
2022-09-04T01:34:11.433Z,6.67
2022-09-04T01:36:49.270Z,6.67
2022-09-04T01:39:22.147Z,7.10
2022-09-04T01:41:57.572Z,6.27
2022-09-04T01:44:25.850Z,7.00
2022-09-04T01:47:09.791Z,6.67
2022-09-04T01:49:39.858Z,6.30
2022-09-04T01:52:18.752Z,6.33
2022-09-04T01:54:54.934Z,6.43
2022-09-04T01:57:41.270Z,7.00
2022-09-04T02:00:11.909Z,6.40
2022-09-04T02:02:56.578Z,6.00
2022-09-04T02:05:37.398Z,6.60
2022-09-04T02:08:19.833Z,7.03
2022-09-04T02:10:57.180Z,7.87
2022-09-04T02:13:37.216Z,8.20
2022-09-04T02:16:14.579Z,7.10
2022-09-04T02:18:56.483Z,7.03
2022-09-04T02:21:32.143Z,6.40
2022-09-04T02:24:10.347Z,6.20
2022-09-04T02:26:43.932Z,5.97
2022-09-04T02:29:21.639Z,6.37
2022-09-04T02:31:59.866Z,6.70
2022-09-04T02:34:36.156Z,6.50
2022-09-04T02:37:10.535Z,6.40
2022-09-04T02:39:56.222Z,7.60
2022-09-04T02:42:32.213Z,6.40
2022-09-04T02:45:13.760Z,6.90
2022-09-04T02:47:48.252Z,5.93
2022-09-04T02:50:30.048Z,6.70
2022-09-04T02:53:10.416Z,6.90
2022-09-04T02:55:53.988Z,6.63
2022-09-04T02:58:35.019Z,6.87
2022-09-04T03:01:12.903Z,6.63
2022-09-04T03:03:46.070Z,6.77
2022-09-04T03:06:23.203Z,5.90
2022-09-04T03:08:59.182Z,6.30
2022-09-04T03:11:34.456Z,5.93
2022-09-04T03:14:09.782Z,5.80
2022-09-04T03:16:46.511Z,6.63
2022-09-04T03:19:18.966Z,6.30
2022-09-04T03:21:54.259Z,6.83
2022-09-04T03:24:29.262Z,6.13
2022-09-04T03:27:01.070Z,7.07
2022-09-04T03:29:38.247Z,6.80
2022-09-04T03:32:17.217Z,7.63
2022-09-04T03:34:53.349Z,6.80
2022-09-04T03:37:57.706Z,6.03
2022-09-04T03:40:38.530Z,6.90
2022-09-04T03:43:43.488Z,7.67
2022-09-04T03:46:24.540Z,8.27
2022-09-04T03:49:06.675Z,6.77
2022-09-04T03:51:44.606Z,8.00
2022-09-04T03:54:24.895Z,6.87
2022-09-04T03:57:16.359Z,7.57
2022-09-04T03:59:55.502Z,7.77
2022-09-04T04:02:32.357Z,6.73
2022-09-04T04:05:40.469Z,6.60
2022-09-04T04:08:34.537Z,7.50
2022-09-04T04:11:28.072Z,6.20
2022-09-04T04:14:30.897Z,6.97
2022-09-04T04:17:20.528Z,6.37
2022-09-04T04:20:03.091Z,6.13
2022-09-04T04:22:52.079Z,7.20
2022-09-04T04:25:52.294Z,6.03
2022-09-04T04:28:39.454Z,6.83
2022-09-04T04:31:18.485Z,6.40
2022-09-04T04:33:56.234Z,7.27
2022-09-04T04:36:36.273Z,7.00
2022-09-04T04:39:20.295Z,7.27
2022-09-04T04:42:07.753Z,7.43
2022-09-04T04:45:10.828Z,7.40
2022-09-04T04:48:01.642Z,7.60
2022-09-04T04:50:40.158Z,7.97
2022-09-04T04:53:20.195Z,7.47
2022-09-04T04:55:57.032Z,8.40
2022-09-04T04:58:40.628Z,8.60
2022-09-04T05:01:24.250Z,8.57
2022-09-04T05:04:06.289Z,9.40
2022-09-04T05:06:39.411Z,7.80
2022-09-04T05:09:17.842Z,10.00
2022-09-04T05:11:54.994Z,7.73
2022-09-04T05:14:35.939Z,9.13
2022-09-04T05:17:15.371Z,7.93
2022-09-04T05:19:52.288Z,8.23
2022-09-04T05:22:27.187Z,8.23
2022-09-04T05:25:05.517Z,8.10
2022-09-04T05:27:53.649Z,8.67
2022-09-04T05:30:29.350Z,8.57
2022-09-04T05:33:03.158Z,8.70
2022-09-04T05:35:43.548Z,7.93
2022-09-04T05:38:19.132Z,9.53
2022-09-04T05:41:02.198Z,8.50
2022-09-04T05:44:01.546Z,8.53
2022-09-04T05:46:44.447Z,8.37
2022-09-04T05:49:22.224Z,9.10
2022-09-04T05:52:32.324Z,12.70
2022-09-04T05:55:19.150Z,9.47
2022-09-04T05:57:58.526Z,11.50
2022-09-04T06:00:33.999Z,9.43
2022-09-04T06:03:40.327Z,7.60
2022-09-04T06:06:16.543Z,8.93
2022-09-04T06:09:07.595Z,8.70
2022-09-04T06:11:49.877Z,8.60
2022-09-04T06:14:36.650Z,9.40
2022-09-04T06:17:22.268Z,8.37
2022-09-04T06:20:11.591Z,9.20
2022-09-04T06:23:02.892Z,9.90
2022-09-04T06:25:54.714Z,9.57
2022-09-04T06:28:47.893Z,9.57
2022-09-04T06:31:42.151Z,10.50
2022-09-04T06:34:22.500Z,10.77
2022-09-04T06:37:02.399Z,11.77
2022-09-04T06:39:49.872Z,11.07
2022-09-04T06:42:28.403Z,10.80
2022-09-04T06:45:12.950Z,11.67
2022-09-04T06:47:54.976Z,11.70
2022-09-04T06:50:35.791Z,12.60
2022-09-04T06:53:18.206Z,10.63
2022-09-04T06:55:57.853Z,10.60
2022-09-04T06:58:57.992Z,10.13
2022-09-04T07:01:40.354Z,10.17
2022-09-04T07:04:26.719Z,11.30
2022-09-04T07:07:08.810Z,9.00
2022-09-04T07:09:43.072Z,10.93
2022-09-04T07:12:40.711Z,9.30
2022-09-04T07:15:38.555Z,9.33
2022-09-04T07:18:16.213Z,10.33
2022-09-04T07:20:56.943Z,9.70
2022-09-04T07:23:35.945Z,8.63
2022-09-04T07:26:17.098Z,8.70
2022-09-04T07:29:15.332Z,8.70
2022-09-04T07:31:47.566Z,7.40
2022-09-04T07:34:22.352Z,8.30
2022-09-04T07:36:56.690Z,8.53
2022-09-04T07:39:35.600Z,9.03
2022-09-04T07:42:12.753Z,7.87
2022-09-04T07:44:47.159Z,9.03
2022-09-04T07:47:21.413Z,9.00
2022-09-04T07:50:00.542Z,7.77
2022-09-04T07:52:45.346Z,8.37
2022-09-04T07:55:23.096Z,7.43
2022-09-04T07:58:37.311Z,8.53
2022-09-04T08:01:30.271Z,8.17
2022-09-04T08:04:26.111Z,7.90
2022-09-04T08:07:00.290Z,7.07
2022-09-04T08:10:03.875Z,6.40
2022-09-04T08:12:56.259Z,6.80
2022-09-04T08:15:35.457Z,6.30
2022-09-04T08:18:25.591Z,6.20
2022-09-04T08:21:02.722Z,5.97
2022-09-04T08:24:05.490Z,5.93
2022-09-04T08:26:43.078Z,6.20
2022-09-04T08:29:33.707Z,5.77
2022-09-04T08:32:16.866Z,5.27
2022-09-04T08:35:03.778Z,6.03
2022-09-04T08:37:45.296Z,5.53
2022-09-04T08:40:46.578Z,4.80
2022-09-04T08:43:34.551Z,4.60
2022-09-04T08:46:52.908Z,5.03
2022-09-04T08:49:56.488Z,4.97
2022-09-04T08:53:08.517Z,5.13
2022-09-04T08:55:58.446Z,4.20
2022-09-04T08:59:08.634Z,5.63
2022-09-04T09:02:06.839Z,4.93
2022-09-04T09:05:04.762Z,5.27
2022-09-04T09:08:20.147Z,3.70
2022-09-04T09:11:35.691Z,4.53
2022-09-04T09:14:39.367Z,5.13
2022-09-04T09:17:13.878Z,4.53
2022-09-04T09:19:46.594Z,3.43
2022-09-04T09:22:38.648Z,4.57
2022-09-04T09:25:20.542Z,4.70
2022-09-04T09:28:23.514Z,4.30
2022-09-04T09:31:27.752Z,4.33
2022-09-04T09:34:28.417Z,4.50
2022-09-04T09:37:26.767Z,4.87
2022-09-04T09:40:31.800Z,4.43
2022-09-04T09:43:42.035Z,4.20
2022-09-04T09:46:51.590Z,3.90
2022-09-04T09:49:53.755Z,3.97
2022-09-04T09:52:56.046Z,4.20
2022-09-04T09:55:57.498Z,4.10
2022-09-04T09:58:48.615Z,3.97
2022-09-04T10:01:35.095Z,4.17
2022-09-04T10:04:43.202Z,4.57
2022-09-04T10:07:52.703Z,3.60
2022-09-04T10:10:54.124Z,3.67
2022-09-04T10:14:05.143Z,4.07
2022-09-04T10:17:08.249Z,4.90
2022-09-04T10:20:09.444Z,3.83
2022-09-04T10:23:13.101Z,3.57
2022-09-04T10:26:19.018Z,4.03
2022-09-04T10:29:20.681Z,3.60
2022-09-04T10:32:13.933Z,4.10
2022-09-04T10:35:10.837Z,4.20
2022-09-04T10:38:09.154Z,3.90
2022-09-04T10:40:51.400Z,3.60
2022-09-04T10:43:44.332Z,3.53
2022-09-04T10:46:23.420Z,3.23
2022-09-04T10:49:35.712Z,3.60
2022-09-04T10:52:31.799Z,3.50
2022-09-04T10:55:17.949Z,3.67
2022-09-04T10:58:15.179Z,3.57
2022-09-04T11:00:55.057Z,2.90
2022-09-04T11:03:47.599Z,2.70
2022-09-04T11:07:04.027Z,3.30
2022-09-04T11:09:58.916Z,3.20
2022-09-04T11:13:06.189Z,3.53
2022-09-04T11:15:50.515Z,3.27
2022-09-04T11:18:46.645Z,3.00
2022-09-04T11:21:44.107Z,3.30
2022-09-04T11:25:01.620Z,3.73
2022-09-04T11:28:05.689Z,2.87
2022-09-04T11:30:53.820Z,3.60
2022-09-04T11:33:52.511Z,4.90
2022-09-04T11:36:54.468Z,4.60
2022-09-04T11:39:42.238Z,4.00
2022-09-04T11:42:31.088Z,4.70
2022-09-04T11:45:21.148Z,4.63
2022-09-04T11:48:28.033Z,4.50
2022-09-04T11:51:20.398Z,4.10
2022-09-04T11:54:27.292Z,4.50
2022-09-04T11:57:05.295Z,4.43
2022-09-04T11:59:52.621Z,4.67
2022-09-04T12:02:52.994Z,4.77
2022-09-04T12:05:40.356Z,3.80
2022-09-04T12:08:35.680Z,5.00
2022-09-04T12:11:31.866Z,4.47
2022-09-04T12:14:16.154Z,3.70
2022-09-04T12:17:17.139Z,3.20
2022-09-04T12:20:23.954Z,3.20
2022-09-04T12:23:13.832Z,3.57
2022-09-04T12:26:17.941Z,2.70
2022-09-04T12:29:31.392Z,2.30
2022-09-04T12:32:25.332Z,2.63
2022-09-04T12:35:11.849Z,2.60
2022-09-04T12:38:08.171Z,2.90
2022-09-04T12:40:46.162Z,2.97
2022-09-04T12:43:25.904Z,2.73
2022-09-04T12:46:06.387Z,2.67
2022-09-04T12:48:42.445Z,2.87
2022-09-04T12:51:14.871Z,3.00
2022-09-04T12:54:14.351Z,2.90
2022-09-04T12:56:53.502Z,3.00
2022-09-04T12:59:45.590Z,3.10
2022-09-04T13:02:26.155Z,2.93
2022-09-04T13:05:02.453Z,2.90
2022-09-04T13:07:43.728Z,2.80
2022-09-04T13:10:22.772Z,2.47
2022-09-04T13:13:03.854Z,3.00
2022-09-04T13:15:46.706Z,2.67
2022-09-04T13:18:39.106Z,2.50
2022-09-04T13:21:18.794Z,2.37
2022-09-04T13:24:03.922Z,2.47
2022-09-04T13:27:00.630Z,2.30
2022-09-04T13:29:40.786Z,2.50
2022-09-04T13:32:32.164Z,2.23
2022-09-04T13:35:18.780Z,2.50
2022-09-04T13:38:04.394Z,2.10
2022-09-04T13:40:54.907Z,2.43
2022-09-04T13:43:42.655Z,2.50
2022-09-04T13:46:15.949Z,2.73
2022-09-04T13:48:46.773Z,2.37
2022-09-04T13:51:19.494Z,2.67
2022-09-04T13:54:03.327Z,2.87
2022-09-04T13:56:35.227Z,2.80
2022-09-04T13:59:11.915Z,2.97
2022-09-04T14:01:46.174Z,3.03
2022-09-04T14:04:19.313Z,2.70
2022-09-04T14:06:49.120Z,2.67
2022-09-04T14:09:17.737Z,3.20
2022-09-04T14:12:07.436Z,2.20
2022-09-04T14:15:09.675Z,2.97
2022-09-04T14:17:48.902Z,2.83
2022-09-04T14:20:25.927Z,3.13
2022-09-04T14:23:02.665Z,2.63
2022-09-04T14:25:38.155Z,2.97
2022-09-04T14:28:17.756Z,3.10
2022-09-04T14:31:00.709Z,2.90
2022-09-04T14:33:40.045Z,3.23
2022-09-04T14:36:22.073Z,2.90
2022-09-04T14:39:06.553Z,2.93
2022-09-04T14:41:47.607Z,2.67
2022-09-04T14:44:28.454Z,2.83
2022-09-04T14:47:09.653Z,2.93
2022-09-04T14:49:47.441Z,2.87
2022-09-04T14:52:20.570Z,2.70
2022-09-04T14:54:55.600Z,2.50
2022-09-04T14:57:30.248Z,2.17
2022-09-04T15:00:11.209Z,2.80
2022-09-04T15:02:46.599Z,2.60
2022-09-04T15:05:23.347Z,2.90
2022-09-04T15:08:00.305Z,2.60
2022-09-04T15:10:37.256Z,2.30
2022-09-04T15:13:38.551Z,2.50
2022-09-04T15:16:28.263Z,2.40
2022-09-04T15:19:06.731Z,2.80
2022-09-04T15:21:43.482Z,2.60
2022-09-04T15:24:18.093Z,2.80
2022-09-04T15:26:55.598Z,2.70
2022-09-04T15:29:28.693Z,2.77
2022-09-04T15:32:01.643Z,2.90
2022-09-04T15:34:32.405Z,2.30
2022-09-04T15:37:12.776Z,2.27
2022-09-04T15:39:51.630Z,2.77
2022-09-04T15:42:40.355Z,2.33
2022-09-04T15:45:19.231Z,2.40
2022-09-04T15:48:08.942Z,2.87
2022-09-04T15:50:51.244Z,2.80
2022-09-04T15:53:27.182Z,2.90
2022-09-04T15:56:06.953Z,3.50
2022-09-04T15:58:43.894Z,12.20
2022-09-04T16:01:17.041Z,46.07
2022-09-04T16:04:01.187Z,7.10
2022-09-04T16:06:33.264Z,5.87
2022-09-04T16:09:06.718Z,7.50
2022-09-04T16:11:39.394Z,14.40
2022-09-04T16:14:12.666Z,4.50
2022-09-04T16:16:45.471Z,3.70
2022-09-04T16:19:26.237Z,4.10
2022-09-04T16:22:05.651Z,7.90
2022-09-04T16:24:39.993Z,3.00
2022-09-04T16:27:11.370Z,4.00
2022-09-04T16:29:45.227Z,3.30
2022-09-04T16:32:19.571Z,2.80
2022-09-04T16:34:51.099Z,2.60
2022-09-04T16:37:27.024Z,2.93
2022-09-04T16:40:12.403Z,2.70
2022-09-04T16:42:46.654Z,2.90
2022-09-04T16:45:21.013Z,2.93
2022-09-04T16:47:55.230Z,3.83
2022-09-04T16:50:28.707Z,4.07
2022-09-04T16:53:13.523Z,4.67
2022-09-04T16:55:58.137Z,4.20
2022-09-04T16:58:40.186Z,4.23
2022-09-04T17:01:16.241Z,4.13
2022-09-04T17:04:13.268Z,3.57
2022-09-04T17:06:54.241Z,3.90
2022-09-04T17:09:30.155Z,3.90
2022-09-04T17:12:07.613Z,3.63
2022-09-04T17:14:39.774Z,3.67
2022-09-04T17:17:30.231Z,3.70
2022-09-04T17:20:08.248Z,3.30
2022-09-04T17:29:02.054Z,3.47
2022-09-04T17:29:09.936Z,3.50
2022-09-04T17:29:11.133Z,4.03
2022-09-04T17:31:51.951Z,3.03
2022-09-04T17:40:36.610Z,3.63
2022-09-04T17:40:37.880Z,3.80
2022-09-04T17:40:56.730Z,3.20
2022-09-04T17:43:22.522Z,3.63
2022-09-04T17:46:06.684Z,3.77
2022-09-04T17:48:41.409Z,3.73
2022-09-04T17:51:19.338Z,3.90
2022-09-04T17:53:52.760Z,3.93
2022-09-04T17:56:26.424Z,4.40
2022-09-04T17:59:01.981Z,3.80
2022-09-04T18:01:35.131Z,4.03
2022-09-04T18:04:22.847Z,4.80
2022-09-04T18:07:00.087Z,4.73
2022-09-04T18:09:36.786Z,4.87
2022-09-04T18:12:16.154Z,4.30
2022-09-04T18:15:11.775Z,4.23
2022-09-04T18:17:58.024Z,3.90
2022-09-04T18:20:37.722Z,4.50
2022-09-04T18:23:22.876Z,4.80
2022-09-04T18:25:55.639Z,4.00
2022-09-04T18:28:29.693Z,3.63
2022-09-04T18:37:06.096Z,3.97
2022-09-04T18:37:24.173Z,4.10
2022-09-04T18:37:44.085Z,4.47
2022-09-04T18:40:12.351Z,4.67
2022-09-04T18:50:26.019Z,5.13
2022-09-04T18:50:44.806Z,4.23
2022-09-04T18:50:50.777Z,3.90
2022-09-04T18:51:30.457Z,4.20
2022-09-04T18:54:08.325Z,4.03
2022-09-04T18:56:44.460Z,3.87
2022-09-04T18:59:20.076Z,4.00
2022-09-04T19:01:57.578Z,4.30
2022-09-04T19:04:50.916Z,4.40
2022-09-04T19:07:30.001Z,4.70
2022-09-04T19:10:26.675Z,4.87
2022-09-04T19:13:05.340Z,4.83
2022-09-04T19:15:57.295Z,4.97
2022-09-04T19:18:31.270Z,4.47
2022-09-04T19:21:19.023Z,4.40
2022-09-04T19:23:51.857Z,5.40
2022-09-04T19:26:29.822Z,6.73
2022-09-04T19:29:07.083Z,6.80
2022-09-04T19:31:39.843Z,6.30
2022-09-04T19:34:19.019Z,6.17
2022-09-04T19:36:54.700Z,7.90
2022-09-04T19:45:55.094Z,6.40
2022-09-04T19:46:08.155Z,7.00
2022-09-04T19:46:16.209Z,6.90
2022-09-04T19:48:23.501Z,5.80
2022-09-04T19:53:22.201Z,5.93
2022-09-04T19:53:58.318Z,5.37
2022-09-04T19:56:32.613Z,5.83
2022-09-04T19:59:27.194Z,8.77
2022-09-04T20:02:02.735Z,8.10
2022-09-04T20:04:41.273Z,9.43
2022-09-04T20:07:13.369Z,9.03
2022-09-04T20:09:47.310Z,7.90
2022-09-04T20:12:22.260Z,8.23
2022-09-04T20:14:55.214Z,7.70
2022-09-04T20:17:51.613Z,7.83
2022-09-04T20:20:23.719Z,8.10
2022-09-04T20:22:56.250Z,6.97
2022-09-04T20:25:34.357Z,8.27
2022-09-04T20:28:17.735Z,8.90
2022-09-04T20:31:03.215Z,8.30
2022-09-04T20:33:57.290Z,10.87
2022-09-04T20:36:30.230Z,9.10
2022-09-04T20:39:02.599Z,9.03
2022-09-04T20:41:37.428Z,8.00
2022-09-04T20:44:12.048Z,8.50
2022-09-04T20:52:49.026Z,8.97
2022-09-04T20:52:58.595Z,10.13
2022-09-04T20:53:08.588Z,8.87
2022-09-04T20:55:46.780Z,10.33
2022-09-04T21:03:05.923Z,10.13
2022-09-04T21:03:18.180Z,11.03
2022-09-04T21:04:42.565Z,10.13
2022-09-04T21:07:23.955Z,9.23
2022-09-04T21:10:05.900Z,10.80
2022-09-04T21:12:41.495Z,10.90
2022-09-04T21:15:18.230Z,11.10
2022-09-04T21:18:03.467Z,10.10
2022-09-04T21:20:59.525Z,10.50
2022-09-04T21:24:10.222Z,10.03
2022-09-04T21:27:06.208Z,11.77
2022-09-04T21:29:52.987Z,11.60
2022-09-04T21:32:49.789Z,12.70
2022-09-04T21:35:22.951Z,12.67
2022-09-04T21:38:05.214Z,12.47
2022-09-04T21:40:59.320Z,11.70
2022-09-04T21:43:54.095Z,13.03
2022-09-04T21:46:47.069Z,14.70
2022-09-04T21:49:41.015Z,14.10
2022-09-04T21:52:29.659Z,13.77
2022-09-04T21:57:53.169Z,14.97
2022-09-04T22:02:38.832Z,12.60
2022-09-04T22:02:44.245Z,14.03
2022-09-04T22:04:22.786Z,15.53
2022-09-04T22:09:19.321Z,13.17
2022-09-04T22:13:32.672Z,13.00
2022-09-04T22:13:46.008Z,12.30
2022-09-04T22:16:00.545Z,13.27
2022-09-04T22:18:57.018Z,13.93
2022-09-04T22:21:38.109Z,13.47
2022-09-04T22:24:39.671Z,14.33
2022-09-04T22:28:08.469Z,13.27
2022-09-04T22:30:41.480Z,15.00
2022-09-04T22:34:16.025Z,14.33
2022-09-04T22:37:00.429Z,19.03
2022-09-04T22:39:49.951Z,16.00
2022-09-04T22:42:45.767Z,17.50
2022-09-04T22:45:51.900Z,16.60
2022-09-04T22:48:59.573Z,21.07
2022-09-04T22:51:58.845Z,20.83
2022-09-04T22:54:46.505Z,21.33
2022-09-04T22:57:23.991Z,19.90
2022-09-04T23:00:14.009Z,23.27
2022-09-04T23:03:19.252Z,28.77
2022-09-04T23:06:32.479Z,23.50
2022-09-04T23:13:43.581Z,23.63
2022-09-04T23:14:01.275Z,26.63
2022-09-04T23:15:29.747Z,25.70
2022-09-04T23:21:09.214Z,26.30
2022-09-04T23:26:34.871Z,25.50
2022-09-04T23:26:51.089Z,25.30
2022-09-04T23:27:30.099Z,24.40
2022-09-04T23:30:25.233Z,28.07
2022-09-04T23:33:27.252Z,24.47
2022-09-04T23:36:07.274Z,26.40
2022-09-04T23:39:04.475Z,26.70
2022-09-04T23:41:58.320Z,27.30
2022-09-04T23:44:46.695Z,24.77
2022-09-04T23:47:48.456Z,28.50
2022-09-04T23:50:31.154Z,28.73
2022-09-04T23:53:09.059Z,29.07
2022-09-04T23:55:58.079Z,24.77
2022-09-04T23:58:58.079Z,30.67
